Grindstone Creek Rancheria, California
Current Conditions -  °F | °C
As of 2:55 AM on Sunday 23 Nov 2014 (Local Time) from KCIC Reporting Station
Clear Clear  
Wind Chill:   Ceiling: Unl
Heat Index:   Visibility: 10mi
Dew Point:   Wind: 0mph
Humidity: 100%   Direction: NA
Pressure: 30.31"   Gusts: NA
Location:  39.5562°N, 122.604°W
Report Text: KCIC 231055Z AUTO 00000KT 10SM CLR 05/05 A3031 RMK AO1
Loading
Personal Weather Stations






























Interactive Weather Map New forecast layout! Learn more

10-Day Weather Forecast

Advertisements
Track Severe Weather on mobile